Flight Track Log - Related Links

Times and Time Zones

All times are in EDT time to prevent confusion due to time zone crossing. See the TCF3494 flight status page for this flight to view local times or setup timezone preferences in your user account.

Time Position Orientation Groundspeed Altitude Reporting Facility
EDT Latitude Longitude Course Direction KTS MPH feet Rate Location/Type
Thu 12:57:34 PM 38.9500 -77.5500 260° West 191 220 2,500  Level Potomac TRACON
Thu 12:58:29 PM 38.9317 -77.6303 254° West 251 289 4,000 2,230 Climbing Washington Center
Thu 12:59:00 PM 38.8326 -78.0075 270° West  Level Estimated
Thu 12:59:27 PM 38.9178 -77.7128 258° West 264 304 6,700  Level Washington Center
Thu 01:00:00 PM 38.8035 -78.1441 256° West  Level Estimated
Thu 01:00:27 PM 38.8744 -77.7994 237° Southwest 278 320 9,900  Level Washington Center
Thu 01:01:00 PM 38.7743 -78.2806 256° West  Level Estimated
Thu 01:01:27 PM 38.8683 -77.9006 266° West 289 333 11,500  Level Washington Center
Thu 01:02:00 PM 38.7449 -78.4170 260° West  Level Estimated
Thu 01:02:28 PM 38.8617 -78.0203 266° West 319 367 14,200  Level Washington Center
Thu 01:03:29 PM 38.8467 -78.1478 261° West 327 376 16,000 2,182 Climbing Washington Center
Thu 01:04:29 PM 38.8542 -78.2814 274° West 359 413 18,600 2,300 Climbing Washington Center
Thu 01:05:29 PM 38.8469 -78.4169 266° West 373 429 20,600 2,017 Climbing Washington Center
Thu 01:06:28 PM 38.8247 -78.5547 258° West 391 450 22,600 1,900 Climbing Washington Center
Thu 01:07:29 PM 38.8003 -78.6975 258° West 401 461 24,400 1,736 Climbing Washington Center
Thu 01:08:29 PM 38.7778 -78.8378 258° West 411 473 26,100 1,650 Climbing Washington Center
Thu 01:09:29 PM 38.7531 -78.9831 258° West 411 473 27,700 1,475 Climbing Washington Center
Thu 01:10:27 PM 38.7281 -79.1283 258° West 411 473 29,000 1,160 Climbing Washington Center
Thu 01:11:28 PM 38.7067 -79.2817 260° West 427 491 30,000 1,041 Climbing Washington Center
Thu 01:12:28 PM 38.6786 -79.4478 258° West 444 511 31,100 1,041 Climbing Washington Center
Thu 01:13:29 PM 38.6525 -79.6033 258° West 444 511 32,100 958 Climbing Washington Center
Thu 01:14:27 PM 38.6267 -79.7533 258° West 444 511 33,000 908 Climbing Washington Center
Thu 01:15:28 PM 38.6031 -79.8903 258° West 449 517 33,900 934 Climbing Washington Center
Thu 01:16:29 PM 38.5747 -80.0400 256° West 449 517 34,900 667 Climbing Washington Center
Thu 01:18:37 PM 38.5153 -80.3439 256° West 422 486 36,000 347 Climbing Indianapolis Center
Thu 01:19:39 PM 38.4881 -80.4942 257° West 429 494 36,000  Level Indianapolis Center
Thu 01:20:41 PM 38.4542 -80.6708 256° West 427 491 36,000  Level Indianapolis Center
Thu 01:21:43 PM 38.4256 -80.8183 256° West 428 493 36,000  Level Indianapolis Center
Thu 01:22:45 PM 38.3975 -80.9661 256° West 427 491 36,000  Level Indianapolis Center
Thu 01:23:47 PM 38.3683 -81.1131 256° West 426 490 36,000  Level Indianapolis Center
Thu 01:24:49 PM 38.3322 -81.2606 253° West 429 494 36,000  Level Indianapolis Center
Thu 01:25:51 PM 38.2967 -81.4078 253° West 430 495 36,000  Level Indianapolis Center
Thu 01:26:53 PM 38.2606 -81.5558 253° West 433 498 36,000  Level Indianapolis Center
Thu 01:27:55 PM 38.2247 -81.7039 253° West 435 501 36,000  Level Indianapolis Center
Thu 01:28:57 PM 38.1847 -81.8494 251° West 435 501 36,000  Level Indianapolis Center
Thu 01:29:59 PM 38.1356 -82.0225 250° West 432 497 36,000  Level Indianapolis Center
Thu 01:31:01 PM 38.0942 -82.1647 250° West 428 493 36,000  Level Indianapolis Center
Thu 01:32:03 PM 38.0567 -82.2958 250° West 428 493 36,000  Level Indianapolis Center
Thu 01:33:05 PM 38.0097 -82.4608 250° West 426 490 36,000  Level Indianapolis Center
Thu 01:34:07 PM 37.9700 -82.6022 250° West 427 491 36,000  Level Indianapolis Center
Thu 01:35:09 PM 37.9292 -82.7417 250° West 424 488 36,000  Level Indianapolis Center
Thu 01:36:11 PM 37.8906 -82.8753 250° West 409 471 36,000  Level Indianapolis Center
Thu 01:37:13 PM 37.8503 -83.0092 249° West 408 470 36,000  Level Indianapolis Center
Thu 01:38:15 PM 37.8017 -83.1664 249° West 411 473 36,000  Level Indianapolis Center
Thu 01:39:17 PM 37.7619 -83.3017 250° West 411 473 36,000  Level Indianapolis Center
Thu 01:40:19 PM 37.7228 -83.4358 250° West 409 471 36,000  Level Indianapolis Center
Thu 01:41:21 PM 37.6836 -83.5717 250° West 410 472 36,000  Level Indianapolis Center
Thu 01:42:23 PM 37.6450 -83.7047 250° West 407 468 36,000  Level Indianapolis Center
Thu 01:43:25 PM 37.5989 -83.8600 249° West 406 467 36,000  Level Indianapolis Center
Thu 01:44:27 PM 37.5606 -83.9936 250° West 406 467 36,000  Level Indianapolis Center
Thu 01:45:29 PM 37.5200 -84.1292 249° West 413 475 36,000  Level Indianapolis Center
Thu 01:46:31 PM 37.4800 -84.2642 250° West 413 475 36,000  Level Indianapolis Center
Thu 01:47:33 PM 37.4378 -84.3956 248° West 406 467 36,000  Level Indianapolis Center
Thu 01:48:35 PM 37.3900 -84.5503 249° West 407 468 36,000  Level Indianapolis Center
Thu 01:49:37 PM 37.3472 -84.6817 248° West 406 467 36,000  Level Indianapolis Center
Thu 01:50:39 PM 37.3050 -84.8153 248° West 409 471 36,000  Level Indianapolis Center
Thu 01:51:41 PM 37.2644 -84.9467 249° West 406 467 36,000  Level Indianapolis Center
Thu 01:52:43 PM 37.2208 -85.0792 248° West 410 472 36,000  Level Indianapolis Center
Thu 01:53:45 PM 37.1850 -85.2119 251° West 403 464 36,000  Level Indianapolis Center
Thu 01:54:47 PM 37.1472 -85.3667 253° West 398 458 36,000  Level Indianapolis Center
Thu 01:55:49 PM 37.1136 -85.4986 252° West 397 457 36,000  Level Indianapolis Center
Thu 01:56:51 PM 37.0800 -85.6364 253° West 397 457 36,000  Level Indianapolis Center
Thu 01:57:52 PM 37.0469 -85.7681 253° West 394 453 36,000  Level Indianapolis Center
Thu 01:58:54 PM 37.0136 -85.9000 252° West 395 455 36,000  Level Indianapolis Center
Thu 01:59:56 PM 36.9817 -86.0328 253° West 396 456 36,000  Level Indianapolis Center
Thu 02:00:58 PM 36.9475 -86.1644 252° West 395 455 36,000  Level Indianapolis Center
Thu 02:02:00 PM 36.9139 -86.2967 252° West 397 457 36,000  Level Indianapolis Center
Thu 02:02:51 PM 36.8822 -86.4275 253° West 400 460 36,000  Level Memphis Center
Thu 02:03:51 PM 36.8503 -86.5431 251° West 400 460 36,000  Level Memphis Center
Thu 02:04:51 PM 36.8167 -86.6742 252° West 400 460 36,000  Level Memphis Center
Thu 02:05:51 PM 36.7831 -86.8078 253° West 405 466 36,000  Level Memphis Center
Thu 02:06:51 PM 36.7492 -86.9364 252° West 410 472 36,000  Level Memphis Center
Thu 02:07:51 PM 36.7153 -87.0672 252° West 410 472 36,000  Level Memphis Center
Thu 02:08:51 PM 36.6792 -87.2006 251° West 410 472 36,000  Level Memphis Center
Thu 02:09:51 PM 36.6469 -87.3311 253° West 410 472 36,000  Level Memphis Center
Thu 02:10:51 PM 36.6061 -87.4594 248° West 410 472 36,000  Level Memphis Center
Thu 02:11:51 PM 36.5592 -87.5875 245° Southwest 410 472 36,000  Level Memphis Center
Thu 02:12:51 PM 36.5097 -87.7131 244° Southwest 404 465 36,000  Level Memphis Center
Thu 02:13:51 PM 36.4603 -87.8386 244° Southwest 404 465 36,000  Level Memphis Center
Thu 02:14:51 PM 36.4089 -87.9769 245° Southwest 404 465 36,000  Level Memphis Center
Thu 02:15:51 PM 36.3611 -88.1019 245° Southwest 404 465 36,000  Level Memphis Center
Thu 02:16:51 PM 36.3172 -88.2089 243° Southwest 399 459 36,000  Level Memphis Center
Thu 02:17:51 PM 36.2672 -88.3336 244° Southwest 399 459 36,000  Level Memphis Center
Thu 02:18:51 PM 36.2189 -88.4558 244° Southwest 399 459 36,000  Level Memphis Center
Thu 02:19:51 PM 36.1728 -88.5753 244° Southwest 399 459 36,000  Level Memphis Center
Thu 02:20:51 PM 36.1244 -88.6969 244° Southwest 399 459 36,000  Level Memphis Center
Thu 02:21:51 PM 36.0761 -88.8186 244° Southwest 394 453 36,000  Level Memphis Center
Thu 02:22:51 PM 36.0275 -88.9403 244° Southwest 394 453 36,000  Level Memphis Center
Thu 02:23:51 PM 35.9786 -89.0617 244° Southwest 394 453 36,000  Level Memphis Center
Thu 02:24:51 PM 35.9300 -89.1831 244° Southwest 399 459 36,000  Level Memphis Center
Thu 02:25:51 PM 35.8808 -89.3039 243° Southwest 399 459 36,000  Level Memphis Center
Thu 02:26:51 PM 35.8319 -89.4250 244° Southwest 399 459 36,000  Level Memphis Center
Thu 02:27:51 PM 35.7847 -89.5458 244° Southwest 399 459 36,000  Level Memphis Center
Thu 02:28:51 PM 35.7333 -89.6692 243° Southwest 399 459 36,000  Level Memphis Center
Thu 02:29:51 PM 35.6778 -89.8025 243° Southwest 399 459 36,000  Level Memphis Center
Thu 02:30:51 PM 35.6386 -89.9203 248° West 393 452 36,000  Level Memphis Center
Thu 02:31:51 PM 35.5869 -90.0431 243° Southwest 393 452 36,000  Level Memphis Center
Thu 02:32:51 PM 35.5392 -90.1606 243° Southwest 393 452 36,000  Level Memphis Center
Thu 02:33:51 PM 35.4892 -90.2806 243° Southwest 388 447 36,000  Level Memphis Center
Thu 02:34:51 PM 35.4411 -90.4003 244° Southwest 388 447 36,000  Level Memphis Center
Thu 02:35:51 PM 35.3911 -90.5200 243° Southwest 388 447 36,000  Level Memphis Center
Thu 02:36:51 PM 35.3408 -90.6369 242° Southwest 388 447 36,000  Level Memphis Center
Thu 02:37:51 PM 35.2925 -90.7564 244° Southwest 388 447 36,000  Level Memphis Center
Thu 02:38:51 PM 35.2400 -90.8756 242° Southwest 388 447 36,000  Level Memphis Center
Thu 02:39:51 PM 35.1914 -90.9922 243° Southwest 388 447 36,000  Level Memphis Center
Thu 02:40:51 PM 35.1408 -91.1139 243° Southwest 388 447 36,000  Level Memphis Center
Thu 02:41:51 PM 35.0961 -91.2200 243° Southwest 388 447 36,000  Level Memphis Center
Thu 02:42:51 PM 35.0431 -91.3386 241° Southwest 388 447 36,000  Level Memphis Center
Thu 02:43:51 PM 34.9922 -91.4522 241° Southwest 388 447 36,000  Level Memphis Center
Thu 02:44:51 PM 34.9411 -91.5706 242° Southwest 388 447 36,000  Level Memphis Center
Thu 02:45:51 PM 34.8897 -91.6914 243° Southwest 394 453 36,000  Level Memphis Center
Thu 02:46:51 PM 34.8406 -91.8069 243° Southwest 394 453 36,000  Level Memphis Center
Thu 02:47:51 PM 34.7869 -91.9250 241° Southwest 394 453 36,000  Level Memphis Center
Thu 02:48:51 PM 34.7372 -92.0428 243° Southwest 394 453 36,000  Level Memphis Center
Thu 02:49:51 PM 34.6856 -92.1603 242° Southwest 394 453 36,000  Level Memphis Center
Thu 02:50:51 PM 34.6503 -92.2833 251° West 389 448 36,000  Level Memphis Center
Thu 02:51:51 PM 34.6192 -92.4064 253° West 394 453 36,000  Level Memphis Center
Thu 02:52:51 PM 34.5836 -92.5317 251° West 394 453 36,000  Level Memphis Center
Thu 02:53:51 PM 34.5522 -92.6569 253° West 394 453 36,000  Level Memphis Center
Thu 02:54:51 PM 34.5164 -92.7919 252° West 394 453 36,000  Level Memphis Center
Thu 02:55:51 PM 34.4806 -92.9169 251° West 394 453 36,000  Level Memphis Center
Thu 02:56:51 PM 34.4464 -93.0444 252° West 394 453 36,000  Level Memphis Center
Thu 02:57:51 PM 34.4144 -93.1719 253° West 400 460 36,000  Level Memphis Center
Thu 02:58:51 PM 34.3781 -93.2964 251° West 400 460 36,000  Level Memphis Center
Thu 03:00:05 PM 34.3381 -93.4472 252° West 381 438 36,000  Level Fort Worth Center
Thu 03:01:05 PM 34.3044 -93.5719 252° West 391 450 36,000  Level Fort Worth Center
Thu 03:02:05 PM 34.2686 -93.7017 252° West 397 457 36,000  Level Fort Worth Center
Thu 03:03:05 PM 34.2328 -93.8239 251° West 397 457 36,000  Level Fort Worth Center
Thu 03:04:05 PM 34.2031 -93.9583 255° West 404 465 36,000  Level Fort Worth Center
Thu 03:05:05 PM 34.1644 -94.0778 249° West 404 465 36,000  Level Fort Worth Center
Thu 03:06:05 PM 34.1303 -94.2019 252° West 404 465 36,000  Level Fort Worth Center
Thu 03:07:05 PM 34.1461 -94.3319 278° West 385 443 36,000  Level Fort Worth Center
Thu 03:08:05 PM 34.1678 -94.4567 282° West 385 443 36,000 -50 Level Fort Worth Center
Thu 03:09:05 PM 34.1936 -94.5811 284° West 385 443 35,900 -500 Descending Fort Worth Center
Thu 03:10:05 PM 34.1608 -94.7078 253° West 377 434 35,000 -450 Descending Fort Worth Center
Thu 03:11:05 PM 34.1133 -94.8297 245° Southwest 383 441 35,000  Level Fort Worth Center
Thu 03:12:05 PM 34.0717 -94.9261 242° Southwest 395 455 35,000 -300 Level Fort Worth Center
Thu 03:13:05 PM 34.0178 -95.0606 244° Southwest 401 461 34,400 -1,050 Descending Fort Worth Center
Thu 03:14:05 PM 33.9658 -95.1872 244° Southwest 413 475 32,900 -1,500 Descending Fort Worth Center
Thu 03:15:05 PM 33.9117 -95.3186 244° Southwest 431 496 31,400 -1,500 Descending Fort Worth Center
Thu 03:16:05 PM 33.8578 -95.4575 245° Southwest 443 510 29,900 -1,800 Descending Fort Worth Center
Thu 03:17:05 PM 33.8033 -95.5961 245° Southwest 456 525 27,800 -2,400 Descending Fort Worth Center
Thu 03:18:05 PM 33.7447 -95.7297 242° Southwest 456 525 25,100 -2,600 Descending Fort Worth Center
Thu 03:19:05 PM 33.6942 -95.8556 244° Southwest 443 510 22,600 -2,550 Descending Fort Worth Center
Thu 03:20:05 PM 33.6456 -95.9789 245° Southwest 415 478 20,000 -2,600 Descending Fort Worth Center
Thu 03:21:05 PM 33.5928 -96.1044 243° Southwest 395 455 17,400 -2,200 Descending Fort Worth Center
Thu 03:22:05 PM 33.5539 -96.1997 244° Southwest 366 421 15,600 -2,000 Descending Fort Worth Center
Thu 03:23:05 PM 33.4881 -96.2950 230° Southwest 354 407 13,400 -1,950 Descending Fort Worth Center
Thu 03:24:05 PM 33.4322 -96.3631 225° Southwest 329 379 11,700 -1,200 Descending Fort Worth Center
Thu 03:25:05 PM 33.3681 -96.4408 225° Southwest 310 357 11,000 -457 Descending Fort Worth Center
Thu 03:25:37 PM 33.3333 -96.4667 212° Southwest 287 330 11,000 -978 Level Dallas / Fort Worth TRACON
Thu 03:26:37 PM 33.3000 -96.5667 248° West 286 329 9,500 -1,550 Descending Dallas / Fort Worth TRACON
Thu 03:27:37 PM 33.2833 -96.6500 257° West 283 326 7,900 -1,750 Descending Dallas / Fort Worth TRACON
Thu 03:28:37 PM 33.2667 -96.7333 257° West 276 318 6,000 -950 Descending Dallas / Fort Worth TRACON
Thu 03:29:37 PM 33.2500 -96.8333 259° West 277 319 6,000 -350 Level Dallas / Fort Worth TRACON
Thu 03:30:37 PM 33.2333 -96.9167 257° West 230 265 5,300 -1,000 Descending Dallas / Fort Worth TRACON
Thu 03:31:37 PM 33.2000 -96.9667 231° Southwest 210 242 4,000 -650 Descending Dallas / Fort Worth TRACON
Thu 03:32:37 PM 33.1500 -97.0167 220° Southwest 220 253 4,000 -95 Level Dallas / Fort Worth TRACON
Thu 03:33:43 PM 33.1000 -97.0167 180° South 213 245 3,800 -550 Descending Dallas / Fort Worth TRACON
Thu 03:34:37 PM 33.0500 -97.0167 180° South 198 228 2,900 -950 Descending Dallas / Fort Worth TRACON
Thu 03:35:43 PM 32.9833 -97.0167 180° South 176 203 1,900 -800 Descending Dallas / Fort Worth TRACON
Thu 03:36:37 PM 32.9500 -97.0167 180° South 122 140 1,300 -667 Descending Dallas / Fort Worth TRACON

Login

Don't have an account? Register now (free) for customized features, flight alerts, and more!